Terminal Aerodrome Forecast
Issued by NWS

Home | Current Version | Previous Version | Text Only | Print | Product List | Glossary On
Versions: 1 2 3 4 5 6 7 8 9 10 11 12 13 14 15 16 17
000
FTUS43 KSGF 030600 AAA
TAFBBG
TAF AMD
KBBG 030619Z 0306/0406 00000KT P6SM OVC100
      TEMPO 0306/0309 3SM BR SCT025
     FM030900 00000KT 3SM BR SCT025
      TEMPO 0309/0313 SCT007 OVC010
     FM031300 VRB03KT P6SM SCT007 OVC010
     FM031600 33006KT P6SM VCSH OVC025
     FM031900 33007KT P6SM VCSH OVC040
     FM040000 03004KT P6SM SKC=

USA.gov is the U.S. government's official web portal to all federal, state and local government web resources and services.